sensor_id;sensor_type;location;lat;lon;timestamp;P1;durP1;ratioP1;P2;durP2;ratioP2
14883;SDS011;7534;50.762;7.000;2023-03-18T00:00:03;9.43;;;7.17;;
14883;SDS011;7534;50.762;7.000;2023-03-18T00:02:34;8.20;;;6.30;;
14883;SDS011;7534;50.762;7.000;2023-03-18T00:05:04;9.90;;;6.73;;
14883;SDS011;7534;50.762;7.000;2023-03-18T00:07:33;8.93;;;6.60;;
14883;SDS011;7534;50.762;7.000;2023-03-18T00:10:00;9.43;;;6.70;;
14883;SDS011;7534;50.762;7.000;2023-03-18T00:12:27;13.00;;;6.60;;
14883;SDS011;7534;50.762;7.000;2023-03-18T00:14:53;7.90;;;6.47;;
14883;SDS011;7534;50.762;7.000;2023-03-18T00:17:19;10.73;;;6.33;;
14883;SDS011;7534;50.762;7.000;2023-03-18T00:19:45;10.60;;;6.80;;
14883;SDS011;7534;50.762;7.000;2023-03-18T00:22:11;9.77;;;6.53;;
14883;SDS011;7534;50.762;7.000;2023-03-18T00:24:36;10.77;;;7.10;;
14883;SDS011;7534;50.762;7.000;2023-03-18T00:27:02;8.60;;;6.67;;
14883;SDS011;7534;50.762;7.000;2023-03-18T00:29:28;11.03;;;6.63;;
14883;SDS011;7534;50.762;7.000;2023-03-18T00:31:54;9.97;;;6.70;;
14883;SDS011;7534;50.762;7.000;2023-03-18T00:34:22;9.67;;;7.33;;
14883;SDS011;7534;50.762;7.000;2023-03-18T00:36:48;10.73;;;7.17;;
14883;SDS011;7534;50.762;7.000;2023-03-18T00:39:20;9.60;;;7.17;;
14883;SDS011;7534;50.762;7.000;2023-03-18T00:41:53;11.40;;;7.70;;
14883;SDS011;7534;50.762;7.000;2023-03-18T00:44:20;10.90;;;8.30;;
14883;SDS011;7534;50.762;7.000;2023-03-18T00:46:46;15.07;;;9.77;;
14883;SDS011;7534;50.762;7.000;2023-03-18T00:49:12;14.33;;;10.57;;
14883;SDS011;7534;50.762;7.000;2023-03-18T00:51:39;14.67;;;9.93;;
14883;SDS011;7534;50.762;7.000;2023-03-18T00:54:07;14.50;;;9.90;;
14883;SDS011;7534;50.762;7.000;2023-03-18T00:56:37;14.57;;;10.20;;
14883;SDS011;7534;50.762;7.000;2023-03-18T00:59:05;16.20;;;10.57;;
14883;SDS011;7534;50.762;7.000;2023-03-18T01:01:32;17.77;;;11.33;;
14883;SDS011;7534;50.762;7.000;2023-03-18T01:03:59;14.60;;;10.80;;
14883;SDS011;7534;50.762;7.000;2023-03-18T01:06:26;12.47;;;9.70;;
14883;SDS011;7534;50.762;7.000;2023-03-18T01:08:57;14.50;;;10.27;;
14883;SDS011;7534;50.762;7.000;2023-03-18T01:11:23;15.70;;;11.07;;
14883;SDS011;7534;50.762;7.000;2023-03-18T01:13:50;15.30;;;10.43;;
14883;SDS011;7534;50.762;7.000;2023-03-18T01:16:17;15.37;;;10.07;;
14883;SDS011;7534;50.762;7.000;2023-03-18T01:18:43;17.80;;;10.50;;
14883;SDS011;7534;50.762;7.000;2023-03-18T01:21:09;14.67;;;9.83;;
14883;SDS011;7534;50.762;7.000;2023-03-18T01:23:36;13.13;;;9.57;;
14883;SDS011;7534;50.762;7.000;2023-03-18T01:26:02;15.60;;;10.03;;
14883;SDS011;7534;50.762;7.000;2023-03-18T01:28:30;15.47;;;10.83;;
14883;SDS011;7534;50.762;7.000;2023-03-18T01:30:56;15.77;;;10.23;;
14883;SDS011;7534;50.762;7.000;2023-03-18T01:33:25;14.00;;;10.53;;
14883;SDS011;7534;50.762;7.000;2023-03-18T01:35:56;14.10;;;10.10;;
14883;SDS011;7534;50.762;7.000;2023-03-18T01:38:24;16.13;;;10.10;;
14883;SDS011;7534;50.762;7.000;2023-03-18T01:40:54;17.90;;;9.53;;
14883;SDS011;7534;50.762;7.000;2023-03-18T01:43:23;15.07;;;9.40;;
14883;SDS011;7534;50.762;7.000;2023-03-18T01:45:55;14.17;;;9.57;;
14883;SDS011;7534;50.762;7.000;2023-03-18T01:48:24;16.07;;;8.93;;
14883;SDS011;7534;50.762;7.000;2023-03-18T01:51:04;12.03;;;9.27;;
14883;SDS011;7534;50.762;7.000;2023-03-18T01:53:37;13.40;;;8.43;;
14883;SDS011;7534;50.762;7.000;2023-03-18T01:56:11;12.90;;;8.37;;
14883;SDS011;7534;50.762;7.000;2023-03-18T01:58:42;11.70;;;7.97;;
14883;SDS011;7534;50.762;7.000;2023-03-18T02:01:17;14.67;;;8.53;;
14883;SDS011;7534;50.762;7.000;2023-03-18T02:03:50;11.97;;;8.03;;
14883;SDS011;7534;50.762;7.000;2023-03-18T02:06:18;13.83;;;8.27;;
14883;SDS011;7534;50.762;7.000;2023-03-18T02:08:44;12.57;;;8.37;;
14883;SDS011;7534;50.762;7.000;2023-03-18T02:11:10;11.17;;;8.07;;
14883;SDS011;7534;50.762;7.000;2023-03-18T02:13:37;9.77;;;8.00;;
14883;SDS011;7534;50.762;7.000;2023-03-18T02:16:09;10.97;;;8.00;;
14883;SDS011;7534;50.762;7.000;2023-03-18T02:18:51;13.47;;;8.40;;
14883;SDS011;7534;50.762;7.000;2023-03-18T02:21:30;11.57;;;8.97;;
14883;SDS011;7534;50.762;7.000;2023-03-18T02:24:31;10.37;;;8.33;;
14883;SDS011;7534;50.762;7.000;2023-03-18T02:27:23;12.33;;;9.10;;
14883;SDS011;7534;50.762;7.000;2023-03-18T02:29:53;11.90;;;8.87;;
14883;SDS011;7534;50.762;7.000;2023-03-18T02:32:29;14.83;;;9.47;;
14883;SDS011;7534;50.762;7.000;2023-03-18T02:34:58;10.83;;;8.63;;
14883;SDS011;7534;50.762;7.000;2023-03-18T02:37:29;12.43;;;8.53;;
14883;SDS011;7534;50.762;7.000;2023-03-18T02:40:10;12.30;;;8.83;;
14883;SDS011;7534;50.762;7.000;2023-03-18T02:42:51;11.90;;;8.07;;
14883;SDS011;7534;50.762;7.000;2023-03-18T02:48:40;10.50;;;7.97;;
14883;SDS011;7534;50.762;7.000;2023-03-18T02:51:10;11.30;;;7.67;;
14883;SDS011;7534;50.762;7.000;2023-03-18T02:53:40;13.27;;;7.53;;
14883;SDS011;7534;50.762;7.000;2023-03-18T02:56:06;10.57;;;7.70;;
14883;SDS011;7534;50.762;7.000;2023-03-18T02:58:33;11.10;;;7.90;;
14883;SDS011;7534;50.762;7.000;2023-03-18T03:01:00;12.90;;;7.73;;
14883;SDS011;7534;50.762;7.000;2023-03-18T03:03:28;11.43;;;9.00;;
14883;SDS011;7534;50.762;7.000;2023-03-18T03:05:55;11.60;;;8.50;;
14883;SDS011;7534;50.762;7.000;2023-03-18T03:08:21;11.43;;;8.27;;
14883;SDS011;7534;50.762;7.000;2023-03-18T03:10:47;11.80;;;8.73;;
14883;SDS011;7534;50.762;7.000;2023-03-18T03:13:15;14.60;;;8.90;;
14883;SDS011;7534;50.762;7.000;2023-03-18T03:15:41;11.57;;;8.03;;
14883;SDS011;7534;50.762;7.000;2023-03-18T03:18:07;10.90;;;8.17;;
14883;SDS011;7534;50.762;7.000;2023-03-18T03:20:34;11.33;;;8.53;;
14883;SDS011;7534;50.762;7.000;2023-03-18T03:23:05;11.57;;;8.70;;
14883;SDS011;7534;50.762;7.000;2023-03-18T03:25:35;9.93;;;7.90;;
14883;SDS011;7534;50.762;7.000;2023-03-18T03:28:01;11.40;;;7.80;;
14883;SDS011;7534;50.762;7.000;2023-03-18T03:30:29;13.60;;;8.07;;
14883;SDS011;7534;50.762;7.000;2023-03-18T03:32:54;10.10;;;7.30;;
14883;SDS011;7534;50.762;7.000;2023-03-18T03:35:21;10.73;;;7.57;;
14883;SDS011;7534;50.762;7.000;2023-03-18T03:37:48;9.63;;;7.07;;
14883;SDS011;7534;50.762;7.000;2023-03-18T03:40:15;9.67;;;6.83;;
14883;SDS011;7534;50.762;7.000;2023-03-18T03:42:43;10.23;;;7.57;;
14883;SDS011;7534;50.762;7.000;2023-03-18T03:45:09;10.73;;;7.00;;
14883;SDS011;7534;50.762;7.000;2023-03-18T03:47:38;9.33;;;6.93;;
14883;SDS011;7534;50.762;7.000;2023-03-18T03:50:05;8.77;;;7.03;;
14883;SDS011;7534;50.762;7.000;2023-03-18T03:52:31;8.87;;;7.30;;
14883;SDS011;7534;50.762;7.000;2023-03-18T03:54:57;9.53;;;6.83;;
14883;SDS011;7534;50.762;7.000;2023-03-18T03:57:25;8.50;;;6.73;;
14883;SDS011;7534;50.762;7.000;2023-03-18T03:59:52;8.50;;;6.90;;
14883;SDS011;7534;50.762;7.000;2023-03-18T04:02:18;10.17;;;6.60;;
14883;SDS011;7534;50.762;7.000;2023-03-18T04:04:44;10.30;;;7.17;;
14883;SDS011;7534;50.762;7.000;2023-03-18T04:07:10;8.17;;;7.10;;
14883;SDS011;7534;50.762;7.000;2023-03-18T04:09:38;8.97;;;7.20;;
14883;SDS011;7534;50.762;7.000;2023-03-18T04:12:05;9.10;;;6.70;;
14883;SDS011;7534;50.762;7.000;2023-03-18T04:14:32;10.03;;;6.83;;
14883;SDS011;7534;50.762;7.000;2023-03-18T04:16:58;9.47;;;6.57;;
14883;SDS011;7534;50.762;7.000;2023-03-18T04:19:25;10.07;;;7.00;;
14883;SDS011;7534;50.762;7.000;2023-03-18T04:21:54;9.33;;;7.07;;
14883;SDS011;7534;50.762;7.000;2023-03-18T04:24:20;9.37;;;6.73;;
14883;SDS011;7534;50.762;7.000;2023-03-18T04:26:47;8.60;;;7.43;;
14883;SDS011;7534;50.762;7.000;2023-03-18T04:29:13;11.40;;;7.50;;
14883;SDS011;7534;50.762;7.000;2023-03-18T04:31:39;8.27;;;6.87;;
14883;SDS011;7534;50.762;7.000;2023-03-18T04:34:06;8.87;;;6.87;;
14883;SDS011;7534;50.762;7.000;2023-03-18T04:36:32;11.67;;;7.40;;
14883;SDS011;7534;50.762;7.000;2023-03-18T04:38:58;9.87;;;7.60;;
14883;SDS011;7534;50.762;7.000;2023-03-18T04:41:24;10.77;;;7.63;;
14883;SDS011;7534;50.762;7.000;2023-03-18T04:43:50;8.77;;;7.50;;
14883;SDS011;7534;50.762;7.000;2023-03-18T04:46:16;8.87;;;7.60;;
14883;SDS011;7534;50.762;7.000;2023-03-18T04:48:42;9.30;;;7.23;;
14883;SDS011;7534;50.762;7.000;2023-03-18T04:51:08;9.90;;;7.60;;
14883;SDS011;7534;50.762;7.000;2023-03-18T04:53:36;9.23;;;7.90;;
14883;SDS011;7534;50.762;7.000;2023-03-18T04:56:02;10.57;;;7.80;;
14883;SDS011;7534;50.762;7.000;2023-03-18T04:58:29;9.63;;;8.00;;
14883;SDS011;7534;50.762;7.000;2023-03-18T05:00:55;10.87;;;8.17;;
14883;SDS011;7534;50.762;7.000;2023-03-18T05:03:21;8.67;;;7.77;;
14883;SDS011;7534;50.762;7.000;2023-03-18T05:05:47;12.10;;;8.20;;
14883;SDS011;7534;50.762;7.000;2023-03-18T05:08:14;11.10;;;8.63;;
14883;SDS011;7534;50.762;7.000;2023-03-18T05:10:40;11.40;;;9.27;;
14883;SDS011;7534;50.762;7.000;2023-03-18T05:13:06;10.17;;;8.87;;
14883;SDS011;7534;50.762;7.000;2023-03-18T05:15:33;12.33;;;9.10;;
14883;SDS011;7534;50.762;7.000;2023-03-18T05:17:59;12.67;;;9.27;;
14883;SDS011;7534;50.762;7.000;2023-03-18T05:20:25;12.47;;;8.60;;
14883;SDS011;7534;50.762;7.000;2023-03-18T05:22:52;10.87;;;9.23;;
14883;SDS011;7534;50.762;7.000;2023-03-18T05:25:18;10.87;;;8.53;;
14883;SDS011;7534;50.762;7.000;2023-03-18T05:27:45;10.83;;;8.53;;
14883;SDS011;7534;50.762;7.000;2023-03-18T05:30:12;12.03;;;9.10;;
14883;SDS011;7534;50.762;7.000;2023-03-18T05:32:39;15.07;;;8.57;;
14883;SDS011;7534;50.762;7.000;2023-03-18T05:35:06;12.30;;;8.70;;
14883;SDS011;7534;50.762;7.000;2023-03-18T05:37:33;11.07;;;8.80;;
14883;SDS011;7534;50.762;7.000;2023-03-18T05:39:59;10.83;;;8.50;;
14883;SDS011;7534;50.762;7.000;2023-03-18T05:42:25;12.20;;;8.57;;
14883;SDS011;7534;50.762;7.000;2023-03-18T05:44:51;12.23;;;8.70;;
14883;SDS011;7534;50.762;7.000;2023-03-18T05:47:16;10.63;;;8.73;;
14883;SDS011;7534;50.762;7.000;2023-03-18T05:49:43;12.70;;;8.80;;
14883;SDS011;7534;50.762;7.000;2023-03-18T05:52:08;11.30;;;8.43;;
14883;SDS011;7534;50.762;7.000;2023-03-18T05:54:34;10.90;;;8.23;;
14883;SDS011;7534;50.762;7.000;2023-03-18T05:57:01;10.77;;;8.27;;
14883;SDS011;7534;50.762;7.000;2023-03-18T05:59:26;15.17;;;8.23;;
14883;SDS011;7534;50.762;7.000;2023-03-18T06:01:54;9.50;;;8.50;;
14883;SDS011;7534;50.762;7.000;2023-03-18T06:04:20;11.60;;;8.33;;
14883;SDS011;7534;50.762;7.000;2023-03-18T06:06:46;12.30;;;8.83;;
14883;SDS011;7534;50.762;7.000;2023-03-18T06:09:13;11.47;;;8.53;;
14883;SDS011;7534;50.762;7.000;2023-03-18T06:11:39;12.63;;;9.03;;
14883;SDS011;7534;50.762;7.000;2023-03-18T06:14:05;12.13;;;9.10;;
14883;SDS011;7534;50.762;7.000;2023-03-18T06:16:32;10.93;;;8.80;;
14883;SDS011;7534;50.762;7.000;2023-03-18T06:18:59;11.37;;;9.13;;
14883;SDS011;7534;50.762;7.000;2023-03-18T06:21:26;12.67;;;9.13;;
14883;SDS011;7534;50.762;7.000;2023-03-18T06:23:52;10.17;;;8.50;;
14883;SDS011;7534;50.762;7.000;2023-03-18T06:26:18;12.53;;;8.53;;
14883;SDS011;7534;50.762;7.000;2023-03-18T06:28:45;11.77;;;8.33;;
14883;SDS011;7534;50.762;7.000;2023-03-18T06:31:11;10.20;;;8.53;;
14883;SDS011;7534;50.762;7.000;2023-03-18T06:33:37;10.10;;;7.97;;
14883;SDS011;7534;50.762;7.000;2023-03-18T06:36:03;8.27;;;7.07;;
14883;SDS011;7534;50.762;7.000;2023-03-18T06:38:30;9.93;;;6.20;;
14883;SDS011;7534;50.762;7.000;2023-03-18T06:40:56;7.37;;;6.23;;
14883;SDS011;7534;50.762;7.000;2023-03-18T06:43:23;7.87;;;5.67;;
14883;SDS011;7534;50.762;7.000;2023-03-18T06:45:51;5.30;;;4.78;;
14883;SDS011;7534;50.762;7.000;2023-03-18T06:48:17;6.35;;;4.63;;
14883;SDS011;7534;50.762;7.000;2023-03-18T06:50:43;6.53;;;4.32;;
14883;SDS011;7534;50.762;7.000;2023-03-18T06:53:10;4.30;;;3.90;;
14883;SDS011;7534;50.762;7.000;2023-03-18T06:55:36;5.47;;;3.75;;
14883;SDS011;7534;50.762;7.000;2023-03-18T06:58:03;5.75;;;3.83;;
14883;SDS011;7534;50.762;7.000;2023-03-18T07:00:30;4.78;;;3.60;;
14883;SDS011;7534;50.762;7.000;2023-03-18T07:02:57;4.32;;;3.35;;
14883;SDS011;7534;50.762;7.000;2023-03-18T07:05:25;4.35;;;3.42;;
14883;SDS011;7534;50.762;7.000;2023-03-18T07:07:51;3.83;;;3.38;;
14883;SDS011;7534;50.762;7.000;2023-03-18T07:10:19;4.10;;;3.65;;
14883;SDS011;7534;50.762;7.000;2023-03-18T07:12:49;3.83;;;3.33;;
14883;SDS011;7534;50.762;7.000;2023-03-18T07:15:16;5.90;;;3.60;;
14883;SDS011;7534;50.762;7.000;2023-03-18T07:17:45;3.65;;;3.35;;
14883;SDS011;7534;50.762;7.000;2023-03-18T07:20:11;3.50;;;3.17;;
14883;SDS011;7534;50.762;7.000;2023-03-18T07:22:39;4.72;;;3.40;;
14883;SDS011;7534;50.762;7.000;2023-03-18T07:25:06;3.67;;;3.38;;
14883;SDS011;7534;50.762;7.000;2023-03-18T07:27:32;3.88;;;3.50;;
14883;SDS011;7534;50.762;7.000;2023-03-18T07:29:58;4.68;;;3.20;;
14883;SDS011;7534;50.762;7.000;2023-03-18T07:32:25;3.90;;;3.25;;
14883;SDS011;7534;50.762;7.000;2023-03-18T07:34:51;4.80;;;4.10;;
14883;SDS011;7534;50.762;7.000;2023-03-18T07:37:17;4.07;;;3.40;;
14883;SDS011;7534;50.762;7.000;2023-03-18T07:39:42;3.63;;;3.20;;
14883;SDS011;7534;50.762;7.000;2023-03-18T07:42:09;3.67;;;3.30;;
14883;SDS011;7534;50.762;7.000;2023-03-18T07:44:35;4.28;;;3.50;;
14883;SDS011;7534;50.762;7.000;2023-03-18T07:47:02;5.47;;;3.70;;
14883;SDS011;7534;50.762;7.000;2023-03-18T07:49:28;4.28;;;3.40;;
14883;SDS011;7534;50.762;7.000;2023-03-18T07:51:54;3.75;;;3.30;;
14883;SDS011;7534;50.762;7.000;2023-03-18T07:54:20;4.35;;;3.10;;
14883;SDS011;7534;50.762;7.000;2023-03-18T07:56:47;4.07;;;3.63;;
14883;SDS011;7534;50.762;7.000;2023-03-18T07:59:13;3.60;;;3.05;;
14883;SDS011;7534;50.762;7.000;2023-03-18T08:01:39;4.68;;;3.38;;
14883;SDS011;7534;50.762;7.000;2023-03-18T08:04:05;3.30;;;3.00;;
14883;SDS011;7534;50.762;7.000;2023-03-18T08:06:31;3.63;;;3.33;;
14883;SDS011;7534;50.762;7.000;2023-03-18T08:08:58;3.75;;;3.30;;
14883;SDS011;7534;50.762;7.000;2023-03-18T08:11:25;3.70;;;3.30;;
14883;SDS011;7534;50.762;7.000;2023-03-18T08:13:50;4.70;;;3.20;;
14883;SDS011;7534;50.762;7.000;2023-03-18T08:16:16;3.60;;;3.20;;
14883;SDS011;7534;50.762;7.000;2023-03-18T08:18:43;4.38;;;3.10;;
14883;SDS011;7534;50.762;7.000;2023-03-18T08:21:09;3.38;;;3.05;;
14883;SDS011;7534;50.762;7.000;2023-03-18T08:23:35;3.13;;;2.65;;
14883;SDS011;7534;50.762;7.000;2023-03-18T08:26:02;3.47;;;2.80;;
14883;SDS011;7534;50.762;7.000;2023-03-18T08:28:29;4.00;;;3.00;;
14883;SDS011;7534;50.762;7.000;2023-03-18T08:30:55;4.00;;;3.00;;
14883;SDS011;7534;50.762;7.000;2023-03-18T08:33:23;4.28;;;2.83;;
14883;SDS011;7534;50.762;7.000;2023-03-18T08:35:51;4.57;;;2.65;;
14883;SDS011;7534;50.762;7.000;2023-03-18T08:38:17;3.65;;;2.97;;
14883;SDS011;7534;50.762;7.000;2023-03-18T08:40:43;4.10;;;3.43;;
14883;SDS011;7534;50.762;7.000;2023-03-18T08:43:10;3.75;;;3.08;;
14883;SDS011;7534;50.762;7.000;2023-03-18T08:45:36;4.20;;;2.95;;
14883;SDS011;7534;50.762;7.000;2023-03-18T08:48:02;3.45;;;2.90;;
14883;SDS011;7534;50.762;7.000;2023-03-18T08:50:27;4.05;;;2.70;;
14883;SDS011;7534;50.762;7.000;2023-03-18T08:52:57;3.45;;;2.70;;
14883;SDS011;7534;50.762;7.000;2023-03-18T08:55:42;4.00;;;3.00;;
14883;SDS011;7534;50.762;7.000;2023-03-18T08:58:08;3.58;;;2.80;;
14883;SDS011;7534;50.762;7.000;2023-03-18T09:00:35;2.88;;;2.60;;
14883;SDS011;7534;50.762;7.000;2023-03-18T09:03:03;4.05;;;2.70;;
14883;SDS011;7534;50.762;7.000;2023-03-18T09:05:30;4.35;;;2.97;;
14883;SDS011;7534;50.762;7.000;2023-03-18T09:07:56;3.72;;;2.80;;
14883;SDS011;7534;50.762;7.000;2023-03-18T09:10:23;3.55;;;2.50;;
14883;SDS011;7534;50.762;7.000;2023-03-18T09:12:50;3.83;;;3.00;;
14883;SDS011;7534;50.762;7.000;2023-03-18T09:15:16;3.20;;;2.60;;
14883;SDS011;7534;50.762;7.000;2023-03-18T09:17:44;3.03;;;2.40;;
14883;SDS011;7534;50.762;7.000;2023-03-18T09:20:11;3.83;;;2.70;;
14883;SDS011;7534;50.762;7.000;2023-03-18T09:22:41;4.60;;;2.50;;
14883;SDS011;7534;50.762;7.000;2023-03-18T09:25:10;2.95;;;2.60;;
14883;SDS011;7534;50.762;7.000;2023-03-18T09:27:36;3.00;;;2.15;;
14883;SDS011;7534;50.762;7.000;2023-03-18T09:30:02;3.00;;;2.20;;
14883;SDS011;7534;50.762;7.000;2023-03-18T09:32:29;3.97;;;2.58;;
14883;SDS011;7534;50.762;7.000;2023-03-18T09:34:55;2.60;;;2.15;;
14883;SDS011;7534;50.762;7.000;2023-03-18T09:37:20;2.78;;;2.10;;
14883;SDS011;7534;50.762;7.000;2023-03-18T09:39:46;2.80;;;2.05;;
14883;SDS011;7534;50.762;7.000;2023-03-18T09:43:13;2.75;;;2.42;;
14883;SDS011;7534;50.762;7.000;2023-03-18T09:45:41;2.40;;;2.10;;
14883;SDS011;7534;50.762;7.000;2023-03-18T09:48:29;3.55;;;2.13;;
14883;SDS011;7534;50.762;7.000;2023-03-18T09:54:33;3.47;;;1.98;;
14883;SDS011;7534;50.762;7.000;2023-03-18T09:57:18;4.20;;;2.08;;
14883;SDS011;7534;50.762;7.000;2023-03-18T09:59:51;5.18;;;2.38;;
14883;SDS011;7534;50.762;7.000;2023-03-18T10:02:34;2.42;;;2.10;;
14883;SDS011;7534;50.762;7.000;2023-03-18T10:05:18;3.13;;;2.10;;
14883;SDS011;7534;50.762;7.000;2023-03-18T10:07:54;2.78;;;1.92;;
14883;SDS011;7534;50.762;7.000;2023-03-18T10:10:39;3.95;;;2.25;;
14883;SDS011;7534;50.762;7.000;2023-03-18T10:13:16;3.00;;;1.90;;
14883;SDS011;7534;50.762;7.000;2023-03-18T10:15:56;4.60;;;1.80;;
14883;SDS011;7534;50.762;7.000;2023-03-18T10:18:31;4.03;;;2.00;;
14883;SDS011;7534;50.762;7.000;2023-03-18T10:23:53;3.85;;;1.90;;
14883;SDS011;7534;50.762;7.000;2023-03-18T10:26:48;1.80;;;1.70;;
14883;SDS011;7534;50.762;7.000;2023-03-18T10:32:22;2.28;;;1.55;;
14883;SDS011;7534;50.762;7.000;2023-03-18T10:35:26;2.40;;;1.70;;
14883;SDS011;7534;50.762;7.000;2023-03-18T10:38:21;2.55;;;1.80;;
14883;SDS011;7534;50.762;7.000;2023-03-18T10:41:01;2.47;;;2.00;;
14883;SDS011;7534;50.762;7.000;2023-03-18T10:43:48;2.25;;;1.95;;
14883;SDS011;7534;50.762;7.000;2023-03-18T10:46:18;2.25;;;1.92;;
14883;SDS011;7534;50.762;7.000;2023-03-18T10:48:47;4.47;;;1.85;;
14883;SDS011;7534;50.762;7.000;2023-03-18T11:01:52;1.92;;;1.60;;
14883;SDS011;7534;50.762;7.000;2023-03-18T11:04:27;2.92;;;1.85;;
14883;SDS011;7534;50.762;7.000;2023-03-18T11:07:02;3.70;;;1.60;;
14883;SDS011;7534;50.762;7.000;2023-03-18T11:09:36;2.53;;;2.00;;
14883;SDS011;7534;50.762;7.000;2023-03-18T11:12:04;3.75;;;3.28;;
14883;SDS011;7534;50.762;7.000;2023-03-18T11:14:45;3.10;;;1.75;;
14883;SDS011;7534;50.762;7.000;2023-03-18T11:17:31;3.42;;;1.60;;
14883;SDS011;7534;50.762;7.000;2023-03-18T11:22:56;2.50;;;1.60;;
14883;SDS011;7534;50.762;7.000;2023-03-18T11:25:37;2.15;;;1.65;;
14883;SDS011;7534;50.762;7.000;2023-03-18T11:28:05;2.67;;;1.42;;
14883;SDS011;7534;50.762;7.000;2023-03-18T11:30:49;3.13;;;1.67;;
14883;SDS011;7534;50.762;7.000;2023-03-18T11:33:20;1.88;;;1.48;;
14883;SDS011;7534;50.762;7.000;2023-03-18T11:38:27;3.45;;;1.80;;
14883;SDS011;7534;50.762;7.000;2023-03-18T11:41:12;2.35;;;1.63;;
14883;SDS011;7534;50.762;7.000;2023-03-18T11:46:58;2.17;;;1.50;;
14883;SDS011;7534;50.762;7.000;2023-03-18T11:49:26;2.72;;;1.45;;
14883;SDS011;7534;50.762;7.000;2023-03-18T11:51:56;2.25;;;1.50;;
14883;SDS011;7534;50.762;7.000;2023-03-18T12:00:41;2.50;;;1.50;;
14883;SDS011;7534;50.762;7.000;2023-03-18T12:03:43;2.60;;;1.60;;
14883;SDS011;7534;50.762;7.000;2023-03-18T12:10:15;1.95;;;1.60;;
14883;SDS011;7534;50.762;7.000;2023-03-18T12:26:48;2.40;;;1.42;;
14883;SDS011;7534;50.762;7.000;2023-03-18T12:39:01;2.40;;;1.63;;
14883;SDS011;7534;50.762;7.000;2023-03-18T12:42:16;3.45;;;1.90;;
14883;SDS011;7534;50.762;7.000;2023-03-18T12:50:17;2.72;;;1.70;;
14883;SDS011;7534;50.762;7.000;2023-03-18T12:55:42;2.05;;;1.40;;
14883;SDS011;7534;50.762;7.000;2023-03-18T12:58:26;3.08;;;1.80;;
14883;SDS011;7534;50.762;7.000;2023-03-18T13:01:03;2.50;;;1.63;;
14883;SDS011;7534;50.762;7.000;2023-03-18T13:03:42;2.47;;;1.50;;
14883;SDS011;7534;50.762;7.000;2023-03-18T13:17:31;3.83;;;1.70;;
14883;SDS011;7534;50.762;7.000;2023-03-18T13:20:26;3.03;;;1.67;;
14883;SDS011;7534;50.762;7.000;2023-03-18T13:25:57;3.78;;;1.70;;
14883;SDS011;7534;50.762;7.000;2023-03-18T13:28:47;3.60;;;1.70;;
14883;SDS011;7534;50.762;7.000;2023-03-18T13:31:33;2.75;;;1.80;;
14883;SDS011;7534;50.762;7.000;2023-03-18T13:34:28;4.20;;;2.03;;
14883;SDS011;7534;50.762;7.000;2023-03-18T13:43:12;2.72;;;1.92;;
14883;SDS011;7534;50.762;7.000;2023-03-18T13:45:44;3.78;;;1.90;;
14883;SDS011;7534;50.762;7.000;2023-03-18T13:48:15;3.63;;;1.80;;
14883;SDS011;7534;50.762;7.000;2023-03-18T13:50:56;3.38;;;1.83;;
14883;SDS011;7534;50.762;7.000;2023-03-18T13:53:33;4.57;;;2.10;;
14883;SDS011;7534;50.762;7.000;2023-03-18T13:56:25;2.78;;;1.70;;
14883;SDS011;7534;50.762;7.000;2023-03-18T13:59:01;3.72;;;2.15;;
14883;SDS011;7534;50.762;7.000;2023-03-18T14:01:31;3.17;;;2.42;;
14883;SDS011;7534;50.762;7.000;2023-03-18T14:22:41;3.85;;;1.90;;
14883;SDS011;7534;50.762;7.000;2023-03-18T14:32:58;3.72;;;2.53;;
14883;SDS011;7534;50.762;7.000;2023-03-18T14:35:52;6.38;;;4.93;;
14883;SDS011;7534;50.762;7.000;2023-03-18T14:38:33;4.13;;;2.40;;
14883;SDS011;7534;50.762;7.000;2023-03-18T14:41:25;5.28;;;2.53;;
14883;SDS011;7534;50.762;7.000;2023-03-18T14:46:45;2.95;;;1.70;;
14883;SDS011;7534;50.762;7.000;2023-03-18T14:49:35;6.65;;;1.80;;
14883;SDS011;7534;50.762;7.000;2023-03-18T14:52:28;4.13;;;1.83;;
14883;SDS011;7534;50.762;7.000;2023-03-18T14:55:01;3.78;;;1.75;;
14883;SDS011;7534;50.762;7.000;2023-03-18T14:57:38;5.68;;;1.70;;
14883;SDS011;7534;50.762;7.000;2023-03-18T15:00:04;2.90;;;1.67;;
14883;SDS011;7534;50.762;7.000;2023-03-18T15:02:33;3.55;;;1.65;;
14883;SDS011;7534;50.762;7.000;2023-03-18T15:05:02;3.55;;;1.65;;
14883;SDS011;7534;50.762;7.000;2023-03-18T15:07:34;3.22;;;2.20;;
14883;SDS011;7534;50.762;7.000;2023-03-18T15:12:55;3.38;;;1.90;;
14883;SDS011;7534;50.762;7.000;2023-03-18T15:15:28;4.43;;;1.90;;
14883;SDS011;7534;50.762;7.000;2023-03-18T15:17:55;4.32;;;1.60;;
14883;SDS011;7534;50.762;7.000;2023-03-18T15:20:27;4.35;;;1.83;;
14883;SDS011;7534;50.762;7.000;2023-03-18T15:23:00;3.58;;;1.60;;
14883;SDS011;7534;50.762;7.000;2023-03-18T15:25:32;2.90;;;1.67;;
14883;SDS011;7534;50.762;7.000;2023-03-18T15:27:58;2.85;;;1.83;;
14883;SDS011;7534;50.762;7.000;2023-03-18T15:30:25;7.47;;;1.77;;
14883;SDS011;7534;50.762;7.000;2023-03-18T15:33:15;3.88;;;1.70;;
14883;SDS011;7534;50.762;7.000;2023-03-18T15:35:52;2.88;;;1.65;;
14883;SDS011;7534;50.762;7.000;2023-03-18T15:38:30;3.40;;;1.70;;
14883;SDS011;7534;50.762;7.000;2023-03-18T15:40:59;2.92;;;1.70;;
14883;SDS011;7534;50.762;7.000;2023-03-18T15:43:31;2.90;;;1.60;;
14883;SDS011;7534;50.762;7.000;2023-03-18T15:46:14;4.40;;;1.73;;
14883;SDS011;7534;50.762;7.000;2023-03-18T15:48:54;3.38;;;2.15;;
14883;SDS011;7534;50.762;7.000;2023-03-18T15:51:27;4.82;;;2.33;;
14883;SDS011;7534;50.762;7.000;2023-03-18T15:54:05;3.88;;;1.83;;
14883;SDS011;7534;50.762;7.000;2023-03-18T15:56:42;3.78;;;1.70;;
14883;SDS011;7534;50.762;7.000;2023-03-18T15:59:13;2.92;;;1.75;;
14883;SDS011;7534;50.762;7.000;2023-03-18T16:01:48;4.32;;;1.63;;
14883;SDS011;7534;50.762;7.000;2023-03-18T16:04:15;2.17;;;1.60;;
14883;SDS011;7534;50.762;7.000;2023-03-18T16:06:42;4.53;;;1.63;;
14883;SDS011;7534;50.762;7.000;2023-03-18T16:09:15;4.20;;;1.80;;
14883;SDS011;7534;50.762;7.000;2023-03-18T16:11:59;3.55;;;1.80;;
14883;SDS011;7534;50.762;7.000;2023-03-18T16:14:37;4.07;;;1.70;;
14883;SDS011;7534;50.762;7.000;2023-03-18T16:17:09;3.17;;;1.52;;
14883;SDS011;7534;50.762;7.000;2023-03-18T16:19:37;3.22;;;2.20;;
14883;SDS011;7534;50.762;7.000;2023-03-18T16:22:02;3.03;;;1.80;;
14883;SDS011;7534;50.762;7.000;2023-03-18T16:24:28;4.43;;;2.22;;
14883;SDS011;7534;50.762;7.000;2023-03-18T16:26:54;4.60;;;2.50;;
14883;SDS011;7534;50.762;7.000;2023-03-18T16:29:42;4.45;;;2.22;;
14883;SDS011;7534;50.762;7.000;2023-03-18T16:32:08;3.17;;;2.30;;
14883;SDS011;7534;50.762;7.000;2023-03-18T16:34:36;3.47;;;2.20;;
14883;SDS011;7534;50.762;7.000;2023-03-18T16:37:02;4.50;;;2.55;;
14883;SDS011;7534;50.762;7.000;2023-03-18T16:39:32;4.00;;;2.33;;
14883;SDS011;7534;50.762;7.000;2023-03-18T16:41:59;4.38;;;1.92;;
14883;SDS011;7534;50.762;7.000;2023-03-18T16:44:27;3.53;;;1.67;;
14883;SDS011;7534;50.762;7.000;2023-03-18T16:46:53;2.95;;;1.60;;
14883;SDS011;7534;50.762;7.000;2023-03-18T16:49:23;1.70;;;1.60;;
14883;SDS011;7534;50.762;7.000;2023-03-18T16:51:58;3.17;;;1.67;;
14883;SDS011;7534;50.762;7.000;2023-03-18T16:54:26;1.50;;;1.30;;
14883;SDS011;7534;50.762;7.000;2023-03-18T16:56:56;4.22;;;1.73;;
14883;SDS011;7534;50.762;7.000;2023-03-18T16:59:29;1.75;;;1.40;;
14883;SDS011;7534;50.762;7.000;2023-03-18T17:01:59;3.63;;;1.60;;
14883;SDS011;7534;50.762;7.000;2023-03-18T17:04:32;2.90;;;1.50;;
14883;SDS011;7534;50.762;7.000;2023-03-18T17:07:00;2.58;;;1.63;;
14883;SDS011;7534;50.762;7.000;2023-03-18T17:09:28;2.17;;;1.70;;
14883;SDS011;7534;50.762;7.000;2023-03-18T17:11:56;3.20;;;1.50;;
14883;SDS011;7534;50.762;7.000;2023-03-18T17:14:37;2.88;;;1.70;;
14883;SDS011;7534;50.762;7.000;2023-03-18T17:17:10;2.30;;;1.52;;
14883;SDS011;7534;50.762;7.000;2023-03-18T17:19:50;1.98;;;1.30;;
14883;SDS011;7534;50.762;7.000;2023-03-18T17:22:24;1.58;;;1.33;;